Main page
METAR-TAF:

METAR-TAF

Airports :

London-Luton, England

Luton Airport

latitude: 51-52N, longitude: 000-22W, elevation: 160 m

Current weather observation

The report was made 23 minutes ago, at 08:50 UTC
Wind 10 kt from the East/Northeast
Temperature 9°C
Humidity 81%
Pressure 1025 hPa
Visibility 10 km or more

METAR: EGGW 260850Z AUTO 06010KT 9999 NCD 09/06 Q1025

Time: 10:13 (09:13 UTC)

Forecast

The report was made 4 hours and 15 minutes ago, at 04:58 UTC
Forecast valid from 26 at 06 UTC to 27 at 06 UTC
Wind 9 kt from the Northeast
Visibility 10 km or more
no clouds below 1500 m and no cumulonimbus
Temporary
from 27 at 03 UTC to 27 at 06 UTC
Visibility: 6000 m
Broken clouds at a height of 600 ft
Probability 40% :
Temporary
from 27 at 03 UTC to 27 at 06 UTC
Visibility: 3000 m
Broken clouds at a height of 400 ft
mist

TAF: EGGW 260458Z 2606/2706 05009KT CAVOK TEMPO 2703/2706 6000 BKN006 PROB40 TEMPO 2703/2706 3000 BR BKN004

Weather observations and forecasts of more than 4000 airports (METAR and TAF reports).

The available stations are represented by yellow and red dots on the map.

Hover mouse over dot to see the name of the station.

Then click to see weather observations and forecasts.

To change the map : click on the green buttons with a black cross to zoom in, on the green button with a dash to zoom out, or on the green arrows for adjacent maps.


METAR-TAF: